sensor_id;sensor_type;location;lat;lon;timestamp;pressure;altitude;pressure_sealevel;temperature;humidity
39267;BME280;24967;51.154;13.812;2022-08-25T00:01:49;99903.00;;;20.75;78.50
39267;BME280;24967;51.154;13.812;2022-08-25T00:04:17;99901.78;;;20.65;78.28
39267;BME280;24967;51.154;13.812;2022-08-25T00:06:45;99896.56;;;20.56;78.39
39267;BME280;24967;51.154;13.812;2022-08-25T00:09:14;99895.13;;;20.54;78.39
39267;BME280;24967;51.154;13.812;2022-08-25T00:11:42;99893.84;;;20.50;78.20
39267;BME280;24967;51.154;13.812;2022-08-25T00:14:11;99891.97;;;20.44;78.34
39267;BME280;24967;51.154;13.812;2022-08-25T00:16:39;99888.03;;;20.40;78.54
39267;BME280;24967;51.154;13.812;2022-08-25T00:19:10;99893.22;;;20.34;78.76
39267;BME280;24967;51.154;13.812;2022-08-25T00:21:37;99889.47;;;20.29;79.15
39267;BME280;24967;51.154;13.812;2022-08-25T00:24:06;99896.72;;;20.28;79.14
39267;BME280;24967;51.154;13.812;2022-08-25T00:26:33;99897.78;;;20.27;79.46
39267;BME280;24967;51.154;13.812;2022-08-25T00:29:00;99888.00;;;20.26;79.48
39267;BME280;24967;51.154;13.812;2022-08-25T00:31:26;99886.75;;;20.29;79.44
39267;BME280;24967;51.154;13.812;2022-08-25T00:33:53;99893.41;;;20.26;79.51
39267;BME280;24967;51.154;13.812;2022-08-25T00:36:21;99885.28;;;20.26;79.52
39267;BME280;24967;51.154;13.812;2022-08-25T00:38:48;99897.97;;;20.26;79.60
39267;BME280;24967;51.154;13.812;2022-08-25T00:41:20;99892.97;;;20.23;79.60
39267;BME280;24967;51.154;13.812;2022-08-25T00:43:50;99892.34;;;20.21;79.75
39267;BME280;24967;51.154;13.812;2022-08-25T00:46:20;99889.03;;;20.19;79.90
39267;BME280;24967;51.154;13.812;2022-08-25T00:48:50;99892.34;;;20.21;79.89
39267;BME280;24967;51.154;13.812;2022-08-25T00:51:23;99882.59;;;20.20;79.82
39267;BME280;24967;51.154;13.812;2022-08-25T00:53:51;99884.47;;;20.19;80.19
39267;BME280;24967;51.154;13.812;2022-08-25T00:56:18;99884.47;;;20.19;80.29
39267;BME280;24967;51.154;13.812;2022-08-25T00:58:45;99881.75;;;20.19;80.20
39267;BME280;24967;51.154;13.812;2022-08-25T01:01:11;99881.13;;;20.17;80.15
39267;BME280;24967;51.154;13.812;2022-08-25T01:03:38;99877.59;;;20.17;79.91
39267;BME280;24967;51.154;13.812;2022-08-25T01:06:05;99877.59;;;20.03;79.12
39267;BME280;24967;51.154;13.812;2022-08-25T01:08:35;99882.53;;;20.00;78.17
39267;BME280;24967;51.154;13.812;2022-08-25T01:11:05;99882.28;;;19.81;79.15
39267;BME280;24967;51.154;13.812;2022-08-25T01:13:34;99885.56;;;19.70;79.55
39267;BME280;24967;51.154;13.812;2022-08-25T01:16:02;99867.47;;;19.64;79.99
39267;BME280;24967;51.154;13.812;2022-08-25T01:18:41;99875.38;;;19.65;80.35
39267;BME280;24967;51.154;13.812;2022-08-25T01:21:10;99876.56;;;19.63;80.51
39267;BME280;24967;51.154;13.812;2022-08-25T01:23:37;99881.97;;;19.63;80.79
39267;BME280;24967;51.154;13.812;2022-08-25T01:26:07;99870.34;;;19.62;80.98
39267;BME280;24967;51.154;13.812;2022-08-25T01:28:35;99872.78;;;19.51;81.87
39267;BME280;24967;51.154;13.812;2022-08-25T01:31:02;99875.31;;;19.52;82.01
39267;BME280;24967;51.154;13.812;2022-08-25T01:33:29;99867.63;;;19.56;81.88
39267;BME280;24967;51.154;13.812;2022-08-25T01:35:56;99867.41;;;19.57;81.76
39267;BME280;24967;51.154;13.812;2022-08-25T01:38:24;99869.72;;;19.60;81.55
39267;BME280;24967;51.154;13.812;2022-08-25T01:40:51;99879.50;;;19.61;81.58
39267;BME280;24967;51.154;13.812;2022-08-25T01:43:24;99883.66;;;19.64;81.50
39267;BME280;24967;51.154;13.812;2022-08-25T01:45:52;99870.16;;;19.64;81.46
39267;BME280;24967;51.154;13.812;2022-08-25T01:48:18;99868.09;;;19.66;81.65
39267;BME280;24967;51.154;13.812;2022-08-25T01:50:45;99873.31;;;19.67;81.65
39267;BME280;24967;51.154;13.812;2022-08-25T01:53:16;99878.50;;;19.69;81.69
39267;BME280;24967;51.154;13.812;2022-08-25T01:55:45;99867.31;;;19.72;81.90
39267;BME280;24967;51.154;13.812;2022-08-25T01:58:21;99870.81;;;19.73;82.00
39267;BME280;24967;51.154;13.812;2022-08-25T02:00:50;99867.72;;;19.76;82.03
39267;BME280;24967;51.154;13.812;2022-08-25T02:03:19;99868.38;;;19.78;82.11
39267;BME280;24967;51.154;13.812;2022-08-25T02:05:46;99860.09;;;19.79;82.15
39267;BME280;24967;51.154;13.812;2022-08-25T02:08:13;99863.59;;;19.80;82.24
39267;BME280;24967;51.154;13.812;2022-08-25T02:10:40;99864.00;;;19.77;82.51
39267;BME280;24967;51.154;13.812;2022-08-25T02:13:08;99862.38;;;19.82;82.43
39267;BME280;24967;51.154;13.812;2022-08-25T02:15:39;99862.16;;;19.84;82.20
39267;BME280;24967;51.154;13.812;2022-08-25T02:18:06;99861.97;;;19.85;82.18
39267;BME280;24967;51.154;13.812;2022-08-25T02:20:32;99861.34;;;19.83;82.24
39267;BME280;24967;51.154;13.812;2022-08-25T02:22:59;99863.19;;;19.83;82.18
39267;BME280;24967;51.154;13.812;2022-08-25T02:25:26;99859.47;;;19.84;82.34
39267;BME280;24967;51.154;13.812;2022-08-25T02:27:52;99857.59;;;19.84;82.25
39267;BME280;24967;51.154;13.812;2022-08-25T02:30:20;99861.75;;;19.87;82.38
39267;BME280;24967;51.154;13.812;2022-08-25T02:32:47;99855.94;;;19.90;82.50
39267;BME280;24967;51.154;13.812;2022-08-25T02:35:14;99852.25;;;19.91;82.46
39267;BME280;24967;51.154;13.812;2022-08-25T02:37:40;99845.78;;;19.92;82.51
39267;BME280;24967;51.154;13.812;2022-08-25T02:40:08;99854.53;;;19.94;82.61
39267;BME280;24967;51.154;13.812;2022-08-25T02:42:35;99855.75;;;19.92;83.03
39267;BME280;24967;51.154;13.812;2022-08-25T02:45:03;99856.38;;;19.94;83.14
39267;BME280;24967;51.154;13.812;2022-08-25T02:47:33;99866.16;;;19.95;83.29
39267;BME280;24967;51.154;13.812;2022-08-25T02:50:01;99862.63;;;19.94;83.38
39267;BME280;24967;51.154;13.812;2022-08-25T02:52:27;99860.53;;;19.96;83.58
39267;BME280;24967;51.154;13.812;2022-08-25T02:54:54;99862.81;;;19.99;83.46
39267;BME280;24967;51.154;13.812;2022-08-25T02:57:20;99857.00;;;20.02;83.66
39267;BME280;24967;51.154;13.812;2022-08-25T02:59:47;99851.44;;;20.04;83.50
39267;BME280;24967;51.154;13.812;2022-08-25T03:02:14;99863.28;;;20.09;83.37
39267;BME280;24967;51.154;13.812;2022-08-25T03:04:42;99857.88;;;20.09;83.33
39267;BME280;24967;51.154;13.812;2022-08-25T03:07:10;99859.53;;;20.10;83.27
39267;BME280;24967;51.154;13.812;2022-08-25T03:09:37;99849.97;;;20.14;83.47
39267;BME280;24967;51.154;13.812;2022-08-25T03:12:04;99849.56;;;20.18;83.45
39267;BME280;24967;51.154;13.812;2022-08-25T03:14:30;99848.56;;;20.19;83.67
39267;BME280;24967;51.154;13.812;2022-08-25T03:16:57;99847.50;;;20.20;83.92
39267;BME280;24967;51.154;13.812;2022-08-25T03:19:23;99846.88;;;20.18;84.17
39267;BME280;24967;51.154;13.812;2022-08-25T03:21:52;99838.59;;;20.19;84.27
39267;BME280;24967;51.154;13.812;2022-08-25T03:24:20;99835.06;;;20.19;84.44
39267;BME280;24967;51.154;13.812;2022-08-25T03:26:47;99836.91;;;20.11;85.21
39267;BME280;24967;51.154;13.812;2022-08-25T03:29:20;99832.78;;;20.16;85.08
39267;BME280;24967;51.154;13.812;2022-08-25T03:31:46;99835.25;;;20.10;85.19
39267;BME280;24967;51.154;13.812;2022-08-25T03:34:15;99830.66;;;20.11;85.06
39267;BME280;24967;51.154;13.812;2022-08-25T03:36:43;99840.22;;;20.13;85.06
39267;BME280;24967;51.154;13.812;2022-08-25T03:39:12;99830.06;;;20.16;84.92
39267;BME280;24967;51.154;13.812;2022-08-25T03:41:38;99834.00;;;20.20;84.70
39267;BME280;24967;51.154;13.812;2022-08-25T03:44:06;99836.53;;;20.21;84.59
39267;BME280;24967;51.154;13.812;2022-08-25T03:46:37;99835.47;;;20.22;84.29
39267;BME280;24967;51.154;13.812;2022-08-25T03:49:06;99835.47;;;20.22;84.18
39267;BME280;24967;51.154;13.812;2022-08-25T03:51:36;99831.13;;;20.21;83.88
39267;BME280;24967;51.154;13.812;2022-08-25T03:54:03;99834.41;;;20.23;83.70
39267;BME280;24967;51.154;13.812;2022-08-25T03:56:31;99829.44;;;20.20;83.50
39267;BME280;24967;51.154;13.812;2022-08-25T03:58:58;99837.94;;;20.17;83.50
39267;BME280;24967;51.154;13.812;2022-08-25T04:01:25;99834.84;;;20.13;83.38
39267;BME280;24967;51.154;13.812;2022-08-25T04:03:52;99834.41;;;20.10;83.45
39267;BME280;24967;51.154;13.812;2022-08-25T04:06:19;99833.59;;;20.09;83.28
39267;BME280;24967;51.154;13.812;2022-08-25T04:08:46;99831.91;;;20.08;83.25
39267;BME280;24967;51.154;13.812;2022-08-25T04:11:14;99834.00;;;20.06;83.21
39267;BME280;24967;51.154;13.812;2022-08-25T04:13:43;99834.41;;;20.03;83.10
39267;BME280;24967;51.154;13.812;2022-08-25T04:16:12;99827.56;;;20.01;82.94
39267;BME280;24967;51.154;13.812;2022-08-25T04:18:39;99845.41;;;20.02;82.94
39267;BME280;24967;51.154;13.812;2022-08-25T04:21:07;99829.63;;;19.99;82.97
39267;BME280;24967;51.154;13.812;2022-08-25T04:23:34;99833.38;;;20.04;82.55
39267;BME280;24967;51.154;13.812;2022-08-25T04:26:01;99829.78;;;19.90;82.58
39267;BME280;24967;51.154;13.812;2022-08-25T04:28:28;99836.88;;;19.85;82.46
39267;BME280;24967;51.154;13.812;2022-08-25T04:30:56;99830.84;;;19.83;82.65
39267;BME280;24967;51.154;13.812;2022-08-25T04:33:22;99838.94;;;19.83;82.77
39267;BME280;24967;51.154;13.812;2022-08-25T04:35:49;99837.28;;;19.82;82.94
39267;BME280;24967;51.154;13.812;2022-08-25T04:38:15;99831.66;;;19.83;83.34
39267;BME280;24967;51.154;13.812;2022-08-25T04:40:42;99834.59;;;19.88;83.72
39267;BME280;24967;51.154;13.812;2022-08-25T04:43:08;99841.84;;;19.88;84.21
39267;BME280;24967;51.154;13.812;2022-08-25T04:45:36;99830.00;;;19.89;85.44
39267;BME280;24967;51.154;13.812;2022-08-25T04:48:05;99832.91;;;19.87;86.34
39267;BME280;24967;51.154;13.812;2022-08-25T04:50:31;99828.16;;;19.89;86.96
39267;BME280;24967;51.154;13.812;2022-08-25T04:52:58;99831.25;;;20.00;86.96
39267;BME280;24967;51.154;13.812;2022-08-25T04:55:25;99834.19;;;19.98;88.78
39267;BME280;24967;51.154;13.812;2022-08-25T04:57:52;99836.47;;;20.08;88.64
39267;BME280;24967;51.154;13.812;2022-08-25T05:00:18;99832.78;;;20.16;88.96
39267;BME280;24967;51.154;13.812;2022-08-25T05:02:45;99832.97;;;20.21;89.53
39267;BME280;24967;51.154;13.812;2022-08-25T05:05:13;99840.66;;;20.24;90.64
39267;BME280;24967;51.154;13.812;2022-08-25T05:07:40;99846.69;;;20.26;91.80
39267;BME280;24967;51.154;13.812;2022-08-25T05:10:07;99842.75;;;20.42;90.87
39267;BME280;24967;51.154;13.812;2022-08-25T05:12:33;99844.00;;;20.46;90.71
39267;BME280;24967;51.154;13.812;2022-08-25T05:15:00;99846.06;;;20.50;91.25
39267;BME280;24967;51.154;13.812;2022-08-25T05:17:46;99851.69;;;20.69;91.00
39267;BME280;24967;51.154;13.812;2022-08-25T05:20:14;99850.44;;;20.85;90.37
39267;BME280;24967;51.154;13.812;2022-08-25T05:22:43;99842.53;;;21.03;89.84
39267;BME280;24967;51.154;13.812;2022-08-25T05:25:10;99843.13;;;21.18;89.61
39267;BME280;24967;51.154;13.812;2022-08-25T05:27:38;99843.66;;;21.47;89.04
39267;BME280;24967;51.154;13.812;2022-08-25T05:30:06;99851.91;;;21.65;89.27
39267;BME280;24967;51.154;13.812;2022-08-25T05:32:33;99848.72;;;21.82;86.19
39267;BME280;24967;51.154;13.812;2022-08-25T05:34:59;99852.81;;;21.91;85.56
39267;BME280;24967;51.154;13.812;2022-08-25T05:37:27;99856.50;;;22.03;86.46
39267;BME280;24967;51.154;13.812;2022-08-25T05:39:54;99847.25;;;22.17;87.20
39267;BME280;24967;51.154;13.812;2022-08-25T05:42:20;99851.28;;;22.40;84.27
39267;BME280;24967;51.154;13.812;2022-08-25T05:44:48;99848.50;;;22.72;83.21
39267;BME280;24967;51.154;13.812;2022-08-25T05:47:15;99850.38;;;22.96;81.75
39267;BME280;24967;51.154;13.812;2022-08-25T05:49:41;99846.19;;;23.19;82.18
39267;BME280;24967;51.154;13.812;2022-08-25T05:52:08;99849.63;;;23.44;80.35
39267;BME280;24967;51.154;13.812;2022-08-25T05:54:36;99848.28;;;23.72;79.64
39267;BME280;24967;51.154;13.812;2022-08-25T05:57:03;99839.19;;;23.96;76.51
39267;BME280;24967;51.154;13.812;2022-08-25T05:59:30;99842.66;;;24.15;75.67
39267;BME280;24967;51.154;13.812;2022-08-25T06:01:56;99842.44;;;24.29;76.02
39267;BME280;24967;51.154;13.812;2022-08-25T06:04:40;99832.31;;;24.36;75.19
39267;BME280;24967;51.154;13.812;2022-08-25T06:07:07;99843.94;;;24.43;74.53
39267;BME280;24967;51.154;13.812;2022-08-25T06:09:33;99845.03;;;24.23;74.55
39267;BME280;24967;51.154;13.812;2022-08-25T06:12:04;99831.91;;;24.20;74.70
39267;BME280;24967;51.154;13.812;2022-08-25T06:14:31;99833.16;;;23.94;75.97
39267;BME280;24967;51.154;13.812;2022-08-25T06:16:58;99835.13;;;23.87;76.71
39267;BME280;24967;51.154;13.812;2022-08-25T06:19:26;99831.81;;;23.85;76.73
39267;BME280;24967;51.154;13.812;2022-08-25T06:21:53;99838.69;;;23.88;77.07
39267;BME280;24967;51.154;13.812;2022-08-25T06:24:22;99832.66;;;23.86;77.99
39267;BME280;24967;51.154;13.812;2022-08-25T06:26:49;99840.94;;;23.91;77.34
39267;BME280;24967;51.154;13.812;2022-08-25T06:29:17;99832.88;;;23.84;77.84
39267;BME280;24967;51.154;13.812;2022-08-25T06:31:44;99836.97;;;23.75;77.88
39267;BME280;24967;51.154;13.812;2022-08-25T06:34:11;99835.13;;;23.87;78.07
39267;BME280;24967;51.154;13.812;2022-08-25T06:36:37;99836.22;;;23.98;76.91
39267;BME280;24967;51.154;13.812;2022-08-25T06:39:04;99836.66;;;23.83;78.10
39267;BME280;24967;51.154;13.812;2022-08-25T06:41:31;99835.31;;;23.74;78.97
39267;BME280;24967;51.154;13.812;2022-08-25T06:43:58;99844.19;;;23.63;80.19
39267;BME280;24967;51.154;13.812;2022-08-25T06:46:27;99832.75;;;23.61;82.20
39267;BME280;24967;51.154;13.812;2022-08-25T06:48:54;99837.81;;;23.75;80.47
39267;BME280;24967;51.154;13.812;2022-08-25T06:51:22;99841.34;;;23.76;81.51
39267;BME280;24967;51.154;13.812;2022-08-25T06:53:51;99830.16;;;23.84;80.34
39267;BME280;24967;51.154;13.812;2022-08-25T06:56:19;99828.66;;;23.88;81.17
39267;BME280;24967;51.154;13.812;2022-08-25T06:58:47;99828.34;;;23.96;79.88
39267;BME280;24967;51.154;13.812;2022-08-25T07:01:16;99823.53;;;23.80;81.81
39267;BME280;24967;51.154;13.812;2022-08-25T07:03:45;99833.78;;;23.78;81.94
39267;BME280;24967;51.154;13.812;2022-08-25T07:06:12;99840.28;;;23.77;81.63
39267;BME280;24967;51.154;13.812;2022-08-25T07:08:38;99828.59;;;24.07;80.97
39267;BME280;24967;51.154;13.812;2022-08-25T07:11:06;99826.69;;;24.07;80.82
39267;BME280;24967;51.154;13.812;2022-08-25T07:13:33;99830.84;;;24.10;80.60
39267;BME280;24967;51.154;13.812;2022-08-25T07:16:00;99830.34;;;24.43;78.63
39267;BME280;24967;51.154;13.812;2022-08-25T07:18:27;99827.88;;;24.53;79.37
39267;BME280;24967;51.154;13.812;2022-08-25T07:20:56;99824.09;;;24.66;78.34
39267;BME280;24967;51.154;13.812;2022-08-25T07:23:23;99829.16;;;24.62;78.57
39267;BME280;24967;51.154;13.812;2022-08-25T07:25:50;99823.13;;;24.96;76.55
39267;BME280;24967;51.154;13.812;2022-08-25T07:28:17;99825.72;;;25.02;77.78
39267;BME280;24967;51.154;13.812;2022-08-25T07:30:44;99821.50;;;25.18;77.19
39267;BME280;24967;51.154;13.812;2022-08-25T07:33:10;99814.16;;;24.95;78.49
39267;BME280;24967;51.154;13.812;2022-08-25T07:35:37;99817.56;;;25.26;78.73
39267;BME280;24967;51.154;13.812;2022-08-25T07:38:06;99821.16;;;25.55;77.89
39267;BME280;24967;51.154;13.812;2022-08-25T07:40:34;99822.16;;;25.66;77.22
39267;BME280;24967;51.154;13.812;2022-08-25T07:43:04;99819.41;;;25.77;76.66
39267;BME280;24967;51.154;13.812;2022-08-25T07:45:33;99814.97;;;26.00;76.68
39267;BME280;24967;51.154;13.812;2022-08-25T07:48:02;99818.34;;;26.07;75.50
39267;BME280;24967;51.154;13.812;2022-08-25T07:50:31;99818.94;;;26.26;74.31
39267;BME280;24967;51.154;13.812;2022-08-25T07:52:58;99816.13;;;26.38;73.21
39267;BME280;24967;51.154;13.812;2022-08-25T07:55:27;99817.63;;;26.62;70.63
39267;BME280;24967;51.154;13.812;2022-08-25T07:57:55;99813.34;;;26.66;70.34
39267;BME280;24967;51.154;13.812;2022-08-25T08:00:25;99816.59;;;26.63;71.59
39267;BME280;24967;51.154;13.812;2022-08-25T08:02:54;99811.16;;;26.85;71.79
39267;BME280;24967;51.154;13.812;2022-08-25T08:05:21;99807.75;;;26.95;73.77
39267;BME280;24967;51.154;13.812;2022-08-25T08:07:48;99807.41;;;27.08;74.00
39267;BME280;24967;51.154;13.812;2022-08-25T08:10:14;99810.03;;;27.20;71.22
39267;BME280;24967;51.154;13.812;2022-08-25T08:12:43;99807.28;;;27.64;69.01
39267;BME280;24967;51.154;13.812;2022-08-25T08:15:10;99804.44;;;27.54;67.12
39267;BME280;24967;51.154;13.812;2022-08-25T08:17:37;99804.13;;;27.28;67.63
39267;BME280;24967;51.154;13.812;2022-08-25T08:20:05;99811.38;;;27.39;68.25
39267;BME280;24967;51.154;13.812;2022-08-25T08:22:33;99812.78;;;27.42;68.42
39267;BME280;24967;51.154;13.812;2022-08-25T08:25:00;99811.75;;;27.48;69.06
39267;BME280;24967;51.154;13.812;2022-08-25T08:27:26;99801.72;;;27.54;67.32
39267;BME280;24967;51.154;13.812;2022-08-25T08:29:54;99799.44;;;27.46;68.30
39267;BME280;24967;51.154;13.812;2022-08-25T08:32:21;99796.94;;;27.44;67.02
39267;BME280;24967;51.154;13.812;2022-08-25T08:34:47;99798.78;;;27.60;67.18
39267;BME280;24967;51.154;13.812;2022-08-25T08:37:14;99793.56;;;27.59;67.12
39267;BME280;24967;51.154;13.812;2022-08-25T08:39:41;99784.66;;;27.42;65.65
39267;BME280;24967;51.154;13.812;2022-08-25T08:42:22;99784.06;;;27.39;65.79
39267;BME280;24967;51.154;13.812;2022-08-25T08:45:04;99785.00;;;27.50;65.76
39267;BME280;24967;51.154;13.812;2022-08-25T08:47:42;99787.56;;;27.35;65.38
39267;BME280;24967;51.154;13.812;2022-08-25T08:50:21;99783.56;;;27.43;66.43
39267;BME280;24967;51.154;13.812;2022-08-25T08:52:54;99780.53;;;27.39;65.72
39267;BME280;24967;51.154;13.812;2022-08-25T08:55:27;99778.19;;;27.48;65.99
39267;BME280;24967;51.154;13.812;2022-08-25T08:57:56;99779.56;;;27.28;65.47
39267;BME280;24967;51.154;13.812;2022-08-25T09:00:25;99771.75;;;27.37;66.10
39267;BME280;24967;51.154;13.812;2022-08-25T09:02:56;99771.53;;;27.38;65.29
39267;BME280;24967;51.154;13.812;2022-08-25T09:05:27;99772.31;;;27.17;65.41
39267;BME280;24967;51.154;13.812;2022-08-25T09:07:57;99777.34;;;26.86;66.11
39267;BME280;24967;51.154;13.812;2022-08-25T09:10:25;99762.22;;;26.95;67.00
39267;BME280;24967;51.154;13.812;2022-08-25T09:13:01;99756.72;;;27.12;66.31
39267;BME280;24967;51.154;13.812;2022-08-25T09:15:41;99756.34;;;27.26;65.57
39267;BME280;24967;51.154;13.812;2022-08-25T09:18:34;99754.19;;;27.28;65.96
39267;BME280;24967;51.154;13.812;2022-08-25T09:21:10;99756.88;;;27.50;63.88
39267;BME280;24967;51.154;13.812;2022-08-25T09:23:47;99758.94;;;27.64;63.60
39267;BME280;24967;51.154;13.812;2022-08-25T09:26:28;99758.31;;;27.79;63.12
39267;BME280;24967;51.154;13.812;2022-08-25T09:29:00;99758.31;;;27.79;62.13
39267;BME280;24967;51.154;13.812;2022-08-25T09:31:33;99749.44;;;27.67;62.14
39267;BME280;24967;51.154;13.812;2022-08-25T09:34:04;99753.03;;;27.73;62.39
39267;BME280;24967;51.154;13.812;2022-08-25T09:36:32;99740.88;;;27.85;62.71
39267;BME280;24967;51.154;13.812;2022-08-25T09:38:59;99742.28;;;27.88;62.48
39267;BME280;24967;51.154;13.812;2022-08-25T09:41:42;99744.78;;;27.95;60.65
39267;BME280;24967;51.154;13.812;2022-08-25T09:44:17;99742.13;;;28.00;61.86
39267;BME280;24967;51.154;13.812;2022-08-25T09:46:56;99739.31;;;27.95;61.16
39267;BME280;24967;51.154;13.812;2022-08-25T09:49:35;99738.03;;;28.02;60.43
39267;BME280;24967;51.154;13.812;2022-08-25T09:52:17;99739.25;;;27.84;61.51
39267;BME280;24967;51.154;13.812;2022-08-25T09:54:46;99738.59;;;28.04;61.95
39267;BME280;24967;51.154;13.812;2022-08-25T09:57:27;99734.41;;;28.29;61.81
39267;BME280;24967;51.154;13.812;2022-08-25T09:59:54;99728.28;;;28.49;61.46
39267;BME280;24967;51.154;13.812;2022-08-25T10:02:24;99727.25;;;28.60;59.55
39267;BME280;24967;51.154;13.812;2022-08-25T10:04:52;99717.69;;;28.58;59.36
39267;BME280;24967;51.154;13.812;2022-08-25T10:07:21;99720.56;;;28.41;59.42
39267;BME280;24967;51.154;13.812;2022-08-25T10:09:51;99722.66;;;28.66;59.29
39267;BME280;24967;51.154;13.812;2022-08-25T10:12:21;99711.38;;;28.57;58.82
39267;BME280;24967;51.154;13.812;2022-08-25T10:14:50;99710.41;;;28.79;58.09
39267;BME280;24967;51.154;13.812;2022-08-25T10:17:18;99698.69;;;28.93;57.47
39267;BME280;24967;51.154;13.812;2022-08-25T10:19:52;99694.25;;;28.77;58.76
39267;BME280;24967;51.154;13.812;2022-08-25T10:22:24;99698.94;;;28.92;57.35
39267;BME280;24967;51.154;13.812;2022-08-25T10:24:56;99703.03;;;28.89;58.38
39267;BME280;24967;51.154;13.812;2022-08-25T10:27:29;99687.69;;;28.83;58.50
39267;BME280;24967;51.154;13.812;2022-08-25T10:30:06;99687.22;;;28.96;59.35
39267;BME280;24967;51.154;13.812;2022-08-25T10:32:47;99683.78;;;29.27;57.77
39267;BME280;24967;51.154;13.812;2022-08-25T10:35:19;99680.25;;;29.41;56.90
39267;BME280;24967;51.154;13.812;2022-08-25T10:37:57;99687.06;;;29.24;57.80
39267;BME280;24967;51.154;13.812;2022-08-25T10:40:29;99678.28;;;29.11;56.48
39267;BME280;24967;51.154;13.812;2022-08-25T10:43:04;99674.44;;;29.12;57.00
39267;BME280;24967;51.154;13.812;2022-08-25T10:45:37;99676.34;;;29.12;58.55
39267;BME280;24967;51.154;13.812;2022-08-25T10:51:48;99663.06;;;28.83;58.60
39267;BME280;24967;51.154;13.812;2022-08-25T10:54:27;99665.38;;;29.07;57.47
39267;BME280;24967;51.154;13.812;2022-08-25T10:57:03;99661.34;;;29.40;57.04
39267;BME280;24967;51.154;13.812;2022-08-25T10:59:46;99653.94;;;29.25;56.00
39267;BME280;24967;51.154;13.812;2022-08-25T11:02:43;99646.81;;;29.19;57.04
39267;BME280;24967;51.154;13.812;2022-08-25T11:05:24;99652.56;;;29.22;57.48
39267;BME280;24967;51.154;13.812;2022-08-25T11:07:54;99651.19;;;29.15;57.82
39267;BME280;24967;51.154;13.812;2022-08-25T11:10:26;99645.97;;;29.18;56.81
39267;BME280;24967;51.154;13.812;2022-08-25T11:12:59;99641.94;;;29.41;56.95
39267;BME280;24967;51.154;13.812;2022-08-25T11:15:32;99642.47;;;29.38;55.79
39267;BME280;24967;51.154;13.812;2022-08-25T11:18:05;99639.16;;;29.26;57.15
39267;BME280;24967;51.154;13.812;2022-08-25T11:20:36;99633.16;;;29.39;57.00
39267;BME280;24967;51.154;13.812;2022-08-25T11:23:14;99634.53;;;29.42;56.87
39267;BME280;24967;51.154;13.812;2022-08-25T11:25:44;99630.72;;;29.63;55.53
39267;BME280;24967;51.154;13.812;2022-08-25T11:28:17;99628.50;;;29.60;54.50
39267;BME280;24967;51.154;13.812;2022-08-25T11:30:48;99621.66;;;29.48;53.79
39267;BME280;24967;51.154;13.812;2022-08-25T11:33:17;99623.28;;;29.95;56.57
39267;BME280;24967;51.154;13.812;2022-08-25T11:35:47;99624.91;;;30.16;56.48
39267;BME280;24967;51.154;13.812;2022-08-25T11:38:27;99632.88;;;30.18;55.22
39267;BME280;24967;51.154;13.812;2022-08-25T11:41:04;99622.16;;;30.16;54.95
39267;BME280;24967;51.154;13.812;2022-08-25T11:43:48;99622.44;;;30.15;55.67
39267;BME280;24967;51.154;13.812;2022-08-25T11:46:26;99614.53;;;30.03;55.34
39267;BME280;24967;51.154;13.812;2022-08-25T11:49:06;99617.53;;;30.06;55.04
39267;BME280;24967;51.154;13.812;2022-08-25T11:51:41;99620.56;;;29.89;55.67
39267;BME280;24967;51.154;13.812;2022-08-25T11:54:25;99617.84;;;29.74;56.44
39267;BME280;24967;51.154;13.812;2022-08-25T11:56:57;99613.72;;;29.87;55.34
39267;BME280;24967;51.154;13.812;2022-08-25T12:00:03;99606.63;;;29.76;55.46
39267;BME280;24967;51.154;13.812;2022-08-25T12:02:33;99608.53;;;29.75;54.86
39267;BME280;24967;51.154;13.812;2022-08-25T12:05:01;99606.06;;;29.84;54.11
39267;BME280;24967;51.154;13.812;2022-08-25T12:07:31;99603.56;;;30.03;53.64
39267;BME280;24967;51.154;13.812;2022-08-25T12:10:57;99590.69;;;29.98;53.85
39267;BME280;24967;51.154;13.812;2022-08-25T12:13:43;99586.78;;;30.35;52.74
39267;BME280;24967;51.154;13.812;2022-08-25T12:16:39;99589.81;;;30.28;53.01
39267;BME280;24967;51.154;13.812;2022-08-25T12:19:27;99585.13;;;30.39;53.26
39267;BME280;24967;51.154;13.812;2022-08-25T12:21:57;99576.81;;;30.60;52.76
39267;BME280;24967;51.154;13.812;2022-08-25T12:24:48;99579.53;;;30.60;52.79
39267;BME280;24967;51.154;13.812;2022-08-25T12:27:25;99563.56;;;30.72;50.94
39267;BME280;24967;51.154;13.812;2022-08-25T12:29:57;99568.00;;;30.63;50.34
39267;BME280;24967;51.154;13.812;2022-08-25T12:32:44;99563.38;;;30.53;52.31
39267;BME280;24967;51.154;13.812;2022-08-25T12:35:22;99561.03;;;30.86;51.59
39267;BME280;24967;51.154;13.812;2022-08-25T12:37:59;99557.22;;;30.82;51.76
39267;BME280;24967;51.154;13.812;2022-08-25T12:40:30;99561.91;;;30.71;51.24
39267;BME280;24967;51.154;13.812;2022-08-25T12:43:09;99562.88;;;30.41;53.00
39267;BME280;24967;51.154;13.812;2022-08-25T12:45:43;99565.34;;;30.47;52.29
39267;BME280;24967;51.154;13.812;2022-08-25T12:51:24;99563.84;;;30.80;50.55
39267;BME280;24967;51.154;13.812;2022-08-25T12:53:54;99556.69;;;30.74;51.45
39267;BME280;24967;51.154;13.812;2022-08-25T12:56:30;99554.47;;;30.87;50.64
39267;BME280;24967;51.154;13.812;2022-08-25T12:59:10;99562.88;;;30.95;52.12
39267;BME280;24967;51.154;13.812;2022-08-25T13:01:52;99550.34;;;30.84;53.35
39267;BME280;24967;51.154;13.812;2022-08-25T13:07:53;99547.75;;;30.53;53.33
39267;BME280;24967;51.154;13.812;2022-08-25T13:10:42;99541.88;;;30.75;52.19
39267;BME280;24967;51.154;13.812;2022-08-25T13:13:18;99538.91;;;30.62;53.11
39267;BME280;24967;51.154;13.812;2022-08-25T13:15:59;99529.78;;;30.76;53.45
39267;BME280;24967;51.154;13.812;2022-08-25T13:18:28;99536.88;;;30.88;51.80